CWSA

Sable Island Airport

Nova Scotia, Canada

CWSA 200000Z AUTO 13014KT 4SM BR BKN038 18/17 A3026 RMK TS/LTNG TEMPO UNAVBL SLP247

Observed Flight Rules
Sep-20 @ 00:00 UTC (14 minutes ago)
 
Marginal Visual Flight Rules
Wind Visibility Clouds Conditions
130° at 14 knots 4 miles
  • Broken at 3,800' AGL
  • Mist
Temperatures Readings
Current 18°C / 64°F
Dewpoint 17°C / 63°F
Humidity 94%
Altimeter 30.26" Hg
Pressure 1024.7 hPa
Elevation 4
Observed Flight Rules
Sep-20 @ 00:00 UTC
(14 minutes ago)
 
MVFR
Wind Visibility
130° at 14 knots 4 miles
Clouds Conditions
  • Broken at 3,800' AGL
  • Mist
Temperature Dewpoint
18°C / 64°F 17°C / 63°F
Humidity Altimeter Pressure
94% 30.26" Hg 1024.7 hPa